createdAt,value
2022-10-21T00:04:08.554Z,82.75
2022-10-21T00:09:15.580Z,83.14
2022-10-21T00:14:22.563Z,83.31
2022-10-21T00:19:29.547Z,83.04
2022-10-21T00:24:36.762Z,82.79
2022-10-21T00:29:43.807Z,83.24
2022-10-21T00:34:50.724Z,83.84
2022-10-21T00:39:57.801Z,84.09
2022-10-21T00:45:24.457Z,84.44
2022-10-21T00:50:40.325Z,84.30
2022-10-21T00:55:52.695Z,84.05
2022-10-21T01:01:02.134Z,84.10
2022-10-21T01:06:11.759Z,84.03
2022-10-21T01:11:21.446Z,83.67
2022-10-21T01:16:37.161Z,83.68
2022-10-21T01:21:49.439Z,84.02
2022-10-21T01:27:30.794Z,84.21
2022-10-21T01:32:49.107Z,84.02
2022-10-21T01:38:08.635Z,83.82
2022-10-21T01:43:22.312Z,83.60
2022-10-21T01:48:34.791Z,83.10
2022-10-21T01:53:46.907Z,83.15
2022-10-21T01:58:55.340Z,83.93
2022-10-21T02:04:06.061Z,84.35
2022-10-21T02:09:13.226Z,84.84
2022-10-21T02:14:22.222Z,85.45
2022-10-21T02:24:48.731Z,85.63
2022-10-21T02:30:01.004Z,85.93
2022-10-21T02:35:18.715Z,86.46
2022-10-21T02:40:32.007Z,86.76
2022-10-21T02:45:40.126Z,86.45
2022-10-21T02:50:47.376Z,86.10
2022-10-21T02:55:54.249Z,86.03
2022-10-21T03:01:01.437Z,86.98
2022-10-21T03:06:07.412Z,86.33
2022-10-21T03:11:14.806Z,86.24
2022-10-21T03:16:20.108Z,86.85
2022-10-21T03:21:27.953Z,86.63
2022-10-21T03:26:35.077Z,86.20
2022-10-21T03:31:42.469Z,86.40
2022-10-21T03:36:49.489Z,86.62
2022-10-21T03:41:57.014Z,87.22
2022-10-21T03:47:03.905Z,86.59
2022-10-21T03:52:10.957Z,86.51
2022-10-21T03:57:18.054Z,87.28
2022-10-21T04:02:25.251Z,87.15
2022-10-21T04:07:32.205Z,87.00
2022-10-21T04:12:40.061Z,87.33
2022-10-21T04:17:48.156Z,87.53
2022-10-21T04:22:55.492Z,87.96
2022-10-21T04:28:03.033Z,87.46
2022-10-21T04:33:10.602Z,87.32
2022-10-21T04:38:17.699Z,87.72
2022-10-21T04:43:24.869Z,87.81
2022-10-21T04:48:31.996Z,87.54
2022-10-21T04:53:37.590Z,87.74
2022-10-21T04:58:44.724Z,88.06
2022-10-21T05:03:51.977Z,88.26
2022-10-21T05:08:58.900Z,88.28
2022-10-21T05:14:06.152Z,88.75
2022-10-21T05:19:12.426Z,89.18
2022-10-21T05:24:19.726Z,89.14
2022-10-21T05:29:25.488Z,88.81
2022-10-21T05:34:32.384Z,89.20
2022-10-21T05:44:51.355Z,89.61
2022-10-21T05:49:58.592Z,90.18
2022-10-21T05:55:06.508Z,90.65
2022-10-21T06:00:15.660Z,91.14
2022-10-21T06:05:23.252Z,91.57
2022-10-21T06:10:30.270Z,91.47
2022-10-21T06:15:37.893Z,91.69
2022-10-21T06:20:44.825Z,91.31
2022-10-21T06:26:00.228Z,90.41
2022-10-21T06:31:08.267Z,89.81
2022-10-21T06:36:15.384Z,89.41
2022-10-21T06:41:22.470Z,89.20
2022-10-21T06:46:30.963Z,89.03
2022-10-21T06:51:37.813Z,89.30
2022-10-21T06:56:44.815Z,89.02
2022-10-21T07:02:00.529Z,89.15
2022-10-21T07:07:08.395Z,88.96
2022-10-21T07:12:14.154Z,88.70
2022-10-21T07:17:21.341Z,88.53
2022-10-21T07:22:26.816Z,88.07
2022-10-21T07:37:21.318Z,87.34
2022-10-21T07:42:28.750Z,87.44
2022-10-21T07:47:36.284Z,87.14
2022-10-21T07:52:55.971Z,86.42
2022-10-21T07:58:11.291Z,85.79
2022-10-21T08:03:18.648Z,85.51
2022-10-21T08:08:24.151Z,84.94
2022-10-21T08:13:31.990Z,84.57
2022-10-21T08:18:38.818Z,84.28
2022-10-21T08:23:46.460Z,84.24
2022-10-21T08:28:53.671Z,84.22
2022-10-21T08:34:01.316Z,83.75
2022-10-21T08:39:08.664Z,83.36
2022-10-21T08:44:17.448Z,83.44
2022-10-21T08:49:31.479Z,82.98
2022-10-21T08:54:47.041Z,82.58
2022-10-21T08:59:54.283Z,82.12
2022-10-21T09:05:10.044Z,81.89
2022-10-21T09:10:26.812Z,82.13
2022-10-21T09:15:40.860Z,81.32
2022-10-21T09:21:01.931Z,80.80
2022-10-21T09:26:26.581Z,80.74
2022-10-21T09:31:36.890Z,80.18
2022-10-21T09:36:48.752Z,79.54
2022-10-21T09:42:01.690Z,79.01
2022-10-21T09:47:22.174Z,78.76
2022-10-21T09:52:33.775Z,78.62
2022-10-21T09:57:47.373Z,78.77
2022-10-21T10:02:54.211Z,78.72
2022-10-21T10:08:01.367Z,78.57
2022-10-21T10:13:17.616Z,78.63
2022-10-21T10:18:26.647Z,78.25
2022-10-21T10:23:43.728Z,77.93
2022-10-21T10:28:58.121Z,77.71
2022-10-21T10:34:08.106Z,77.32
2022-10-21T10:39:24.699Z,76.64
2022-10-21T10:44:37.818Z,75.76
2022-10-21T10:49:45.402Z,75.14
2022-10-21T10:55:18.690Z,74.80
2022-10-21T11:00:26.367Z,74.77
2022-10-21T11:05:38.423Z,74.39
2022-10-21T11:10:49.475Z,74.19
2022-10-21T11:16:11.662Z,74.03
2022-10-21T11:21:34.284Z,74.17
2022-10-21T11:26:51.525Z,73.86
2022-10-21T11:32:11.196Z,73.49
2022-10-21T11:37:32.512Z,73.39
2022-10-21T11:42:45.104Z,73.10
2022-10-21T11:47:59.657Z,73.22
2022-10-21T11:53:28.042Z,72.67
2022-10-21T11:58:46.308Z,73.46
2022-10-21T12:04:15.241Z,73.21
2022-10-21T12:09:27.985Z,72.93
2022-10-21T12:14:38.569Z,72.68
2022-10-21T12:19:53.348Z,72.78
2022-10-21T12:25:20.054Z,72.72
2022-10-21T12:30:55.536Z,72.28
2022-10-21T12:36:20.025Z,72.19
2022-10-21T12:41:35.523Z,72.06
2022-10-21T12:46:45.114Z,72.04
2022-10-21T12:51:56.023Z,71.81
2022-10-21T12:57:06.184Z,71.23
2022-10-21T13:02:29.839Z,71.14
2022-10-21T13:07:40.403Z,70.75
2022-10-21T13:12:49.257Z,70.57
2022-10-21T13:17:57.773Z,70.72
2022-10-21T13:23:32.877Z,70.30
2022-10-21T13:28:40.160Z,70.36
2022-10-21T13:33:54.845Z,69.84
2022-10-21T13:39:07.710Z,70.16
2022-10-21T13:44:30.103Z,70.18
2022-10-21T13:49:37.065Z,69.79
2022-10-21T13:54:44.281Z,69.81
2022-10-21T14:00:03.178Z,69.81
2022-10-21T14:05:37.199Z,69.64
2022-10-21T14:10:48.338Z,69.59
2022-10-21T14:15:55.881Z,69.59
2022-10-21T14:21:04.096Z,69.23
2022-10-21T14:26:11.766Z,69.53
2022-10-21T14:41:07.089Z,69.26
2022-10-21T14:46:15.937Z,68.56
2022-10-21T14:51:25.583Z,68.40
2022-10-21T14:56:36.207Z,68.33
2022-10-21T15:01:45.566Z,69.03
2022-10-21T15:07:03.786Z,68.49
2022-10-21T15:12:22.143Z,69.32
2022-10-21T15:17:29.271Z,70.49
2022-10-21T15:22:38.330Z,71.91
2022-10-21T15:27:46.096Z,71.27
2022-10-21T15:32:55.382Z,70.90
2022-10-21T15:38:02.649Z,71.32
2022-10-21T15:43:12.343Z,71.57
2022-10-21T15:48:23.321Z,71.59
2022-10-21T15:53:30.960Z,72.07
2022-10-21T15:58:38.086Z,71.93
2022-10-21T16:03:46.050Z,72.09
2022-10-21T16:08:54.030Z,73.69
2022-10-21T16:14:01.367Z,74.49
2022-10-21T16:19:08.856Z,75.13
2022-10-21T16:24:18.843Z,75.57
2022-10-21T16:29:27.079Z,75.42
2022-10-21T16:34:34.362Z,75.92
2022-10-21T16:39:41.586Z,76.50
2022-10-21T16:44:50.198Z,76.85
2022-10-21T16:50:02.221Z,78.32
2022-10-21T16:55:12.115Z,78.74
2022-10-21T17:00:20.427Z,79.18
2022-10-21T17:05:29.298Z,79.79
2022-10-21T17:10:36.582Z,79.86
2022-10-21T17:15:44.523Z,80.04
2022-10-21T17:20:54.065Z,80.16
2022-10-21T17:26:02.088Z,80.44
2022-10-21T17:31:11.347Z,80.61
2022-10-21T17:36:19.866Z,80.29
2022-10-21T17:41:27.285Z,80.27
2022-10-21T17:46:34.816Z,80.29
2022-10-21T17:51:42.553Z,80.74
2022-10-21T17:56:52.435Z,80.55
2022-10-21T18:02:01.940Z,80.60
2022-10-21T18:12:35.757Z,81.04
2022-10-21T18:17:43.402Z,81.37
2022-10-21T18:22:53.055Z,81.48
2022-10-21T18:28:00.327Z,82.00
2022-10-21T18:33:07.836Z,81.97
2022-10-21T18:38:15.928Z,81.97
2022-10-21T18:43:23.384Z,82.31
2022-10-21T18:48:30.684Z,82.67
2022-10-21T18:53:39.252Z,82.61
2022-10-21T18:58:47.879Z,83.15
2022-10-21T19:03:56.475Z,83.20
2022-10-21T19:09:04.999Z,83.35
2022-10-21T19:14:14.272Z,83.49
2022-10-21T19:19:21.904Z,83.62
2022-10-21T19:24:29.183Z,83.99
2022-10-21T19:29:36.838Z,84.17
2022-10-21T19:34:44.433Z,83.95
2022-10-21T19:39:51.812Z,84.57
2022-10-21T19:44:58.794Z,85.02
2022-10-21T19:50:04.439Z,85.15
2022-10-21T19:55:12.230Z,85.49
2022-10-21T20:00:19.677Z,85.47
2022-10-21T20:05:26.962Z,85.80
2022-10-21T20:10:34.712Z,86.39
2022-10-21T20:15:49.410Z,85.94
2022-10-21T20:20:57.021Z,85.60
2022-10-21T20:26:05.218Z,86.18
2022-10-21T20:31:14.560Z,85.97
2022-10-21T20:36:24.162Z,85.67
2022-10-21T20:41:34.437Z,85.64
2022-10-21T20:46:41.484Z,85.78
2022-10-21T20:51:48.718Z,85.92
2022-10-21T20:56:54.039Z,86.97
2022-10-21T21:02:01.283Z,87.16
2022-10-21T21:07:06.703Z,87.52
2022-10-21T21:12:13.699Z,87.60
2022-10-21T21:21:23.883Z,87.81
2022-10-21T21:26:34.478Z,87.63
2022-10-21T21:31:42.610Z,87.40
2022-10-21T21:36:49.887Z,87.49
2022-10-21T21:41:57.118Z,87.48
2022-10-21T21:47:04.116Z,87.16
2022-10-21T21:52:09.539Z,87.48
2022-10-21T21:57:34.115Z,87.43
2022-10-21T22:02:41.271Z,87.32
2022-10-21T22:07:47.114Z,87.12
2022-10-21T22:12:56.582Z,87.39
2022-10-21T22:18:03.598Z,87.77
2022-10-21T22:23:09.124Z,87.95
2022-10-21T22:28:16.140Z,87.50
2022-10-21T22:33:23.112Z,88.18
2022-10-21T22:38:30.506Z,88.69
2022-10-21T22:43:37.649Z,89.39
2022-10-21T22:48:43.001Z,89.20
2022-10-21T22:53:55.153Z,89.31
2022-10-21T22:59:03.967Z,88.93
2022-10-21T23:04:12.358Z,88.66
2022-10-21T23:09:19.864Z,88.58
2022-10-21T23:14:27.120Z,89.07
2022-10-21T23:19:34.603Z,89.16
2022-10-21T23:24:41.686Z,89.20
2022-10-21T23:29:48.712Z,89.48
2022-10-21T23:34:55.869Z,88.97
2022-10-21T23:40:02.993Z,88.87
2022-10-21T23:45:09.364Z,88.97
2022-10-21T23:50:16.799Z,89.22
2022-10-21T23:55:23.824Z,89.37
